createdAt,value
2017-06-22T00:01:00.325Z,99.99
2017-06-22T00:02:01.753Z,99.99
2017-06-22T00:03:03.181Z,99.99
2017-06-22T00:04:04.610Z,99.99
2017-06-22T00:05:06.048Z,99.99
2017-06-22T00:06:07.477Z,99.99
2017-06-22T00:07:08.904Z,99.99
2017-06-22T00:08:10.336Z,99.99
2017-06-22T00:09:11.767Z,99.99
2017-06-22T00:10:13.193Z,99.99
2017-06-22T00:11:14.619Z,99.99
2017-06-22T00:12:16.051Z,99.93
2017-06-22T00:13:17.484Z,99.99
2017-06-22T00:14:18.913Z,99.99
2017-06-22T00:15:20.354Z,99.99
2017-06-22T00:16:21.789Z,99.99
2017-06-22T00:17:23.215Z,99.99
2017-06-22T00:18:24.638Z,99.99
2017-06-22T00:19:26.077Z,99.99
2017-06-22T00:20:27.501Z,99.99
2017-06-22T00:21:28.946Z,99.93
2017-06-22T00:22:30.376Z,99.99
2017-06-22T00:23:31.822Z,99.99
2017-06-22T00:24:33.251Z,99.99
2017-06-22T00:25:34.682Z,99.99
2017-06-22T00:26:36.113Z,99.99
2017-06-22T00:27:37.545Z,99.99
2017-06-22T00:28:38.987Z,99.99
2017-06-22T00:29:40.430Z,99.99
2017-06-22T00:30:41.872Z,99.99
2017-06-22T00:31:43.304Z,99.99
2017-06-22T00:32:44.737Z,99.99
2017-06-22T00:33:46.162Z,99.99
2017-06-22T00:34:47.598Z,99.99
2017-06-22T00:35:49.027Z,99.99
2017-06-22T00:36:50.453Z,99.99
2017-06-22T00:37:51.888Z,99.99
2017-06-22T00:38:53.314Z,99.99
2017-06-22T00:39:54.737Z,99.99
2017-06-22T00:40:56.166Z,99.99
2017-06-22T00:41:57.596Z,99.99
2017-06-22T00:42:59.019Z,99.99
2017-06-22T00:44:00.447Z,99.99
2017-06-22T00:45:01.891Z,99.99
2017-06-22T00:46:03.316Z,99.99
2017-06-22T00:47:04.746Z,99.99
2017-06-22T00:48:06.168Z,99.73
2017-06-22T00:49:07.600Z,99.16
2017-06-22T00:50:09.030Z,99.06
2017-06-22T00:51:10.462Z,99.64
2017-06-22T00:52:11.884Z,99.93
2017-06-22T00:53:13.316Z,99.99
2017-06-22T00:54:14.741Z,99.93
2017-06-22T00:55:16.168Z,98.87
2017-06-22T00:56:17.599Z,99.06
2017-06-22T00:57:19.025Z,98.96
2017-06-22T00:58:20.463Z,98.49
2017-06-22T00:59:21.888Z,99.26
2017-06-22T01:00:23.313Z,99.11
2017-06-22T01:01:24.747Z,98.77
2017-06-22T01:02:26.171Z,98.14
2017-06-22T01:03:27.604Z,96.56
2017-06-22T01:04:29.035Z,97.62
2017-06-22T01:05:30.478Z,97.67
2017-06-22T01:06:31.920Z,97.86
2017-06-22T01:07:33.341Z,99.78
2017-06-22T01:08:34.775Z,99.01
2017-06-22T01:09:36.201Z,98.96
2017-06-22T01:10:37.632Z,96.75
2017-06-22T01:11:39.059Z,96.94
2017-06-22T01:12:40.488Z,96.85
2017-06-22T01:13:41.911Z,96.75
2017-06-22T01:14:43.344Z,97.57
2017-06-22T01:15:44.773Z,98.72
2017-06-22T01:16:46.209Z,99.68
2017-06-22T01:17:47.637Z,99.99
2017-06-22T01:18:49.075Z,99.99
2017-06-22T01:19:50.512Z,99.99
2017-06-22T01:20:51.935Z,99.99
2017-06-22T01:21:53.366Z,99.99
2017-06-22T01:22:54.799Z,99.99
2017-06-22T01:23:56.224Z,99.99
2017-06-22T01:24:57.661Z,99.99
2017-06-22T01:25:59.087Z,99.99
2017-06-22T01:27:00.516Z,99.99
2017-06-22T01:28:01.962Z,99.99
2017-06-22T01:29:03.395Z,99.99
2017-06-22T01:30:04.823Z,99.99
2017-06-22T01:31:06.257Z,99.99
2017-06-22T01:32:07.683Z,99.99
2017-06-22T01:33:09.113Z,99.99
2017-06-22T01:34:10.550Z,99.99
2017-06-22T01:35:11.985Z,99.99
2017-06-22T01:36:13.413Z,99.99
2017-06-22T01:37:14.843Z,99.99
2017-06-22T01:38:16.320Z,99.99
2017-06-22T01:39:17.748Z,99.99
2017-06-22T01:40:19.175Z,99.99
2017-06-22T01:41:20.601Z,99.99
2017-06-22T01:42:22.032Z,99.99
2017-06-22T01:43:23.466Z,99.99
2017-06-22T01:44:24.889Z,99.99
2017-06-22T01:45:26.324Z,99.99
2017-06-22T01:46:27.754Z,99.99
2017-06-22T01:47:29.178Z,99.99
2017-06-22T01:48:30.598Z,99.99
2017-06-22T01:49:32.030Z,99.99
2017-06-22T01:50:33.457Z,99.99
2017-06-22T01:51:34.886Z,99.99
2017-06-22T01:52:36.314Z,99.99
2017-06-22T01:53:37.735Z,99.99
2017-06-22T01:54:39.167Z,99.99
2017-06-22T01:55:40.589Z,99.99
2017-06-22T01:56:42.017Z,99.99
2017-06-22T01:57:43.441Z,99.99
2017-06-22T01:58:44.873Z,99.99
2017-06-22T01:59:46.307Z,99.99
2017-06-22T02:00:47.734Z,99.99
2017-06-22T02:01:49.167Z,99.99
2017-06-22T02:02:50.591Z,99.99
2017-06-22T02:03:52.021Z,99.99
2017-06-22T02:04:53.455Z,99.99
2017-06-22T02:05:54.886Z,99.99
2017-06-22T02:06:56.316Z,99.99
2017-06-22T02:07:57.743Z,99.99
2017-06-22T02:08:59.166Z,99.99
2017-06-22T02:10:00.595Z,99.99
2017-06-22T02:11:02.025Z,99.99
2017-06-22T02:12:03.448Z,99.99
2017-06-22T02:13:04.874Z,99.99
2017-06-22T02:14:06.306Z,99.99
2017-06-22T02:15:07.735Z,99.99
2017-06-22T02:16:09.162Z,99.99
2017-06-22T02:17:10.587Z,99.99
2017-06-22T02:18:12.013Z,99.99
2017-06-22T02:19:13.448Z,99.99
2017-06-22T02:20:14.870Z,99.99
2017-06-22T02:21:16.300Z,99.99
2017-06-22T02:22:17.729Z,99.99
2017-06-22T02:23:19.157Z,99.99
2017-06-22T02:24:20.582Z,99.99
2017-06-22T02:25:22.015Z,99.99
2017-06-22T02:26:23.443Z,99.99
2017-06-22T02:27:24.868Z,99.99
2017-06-22T02:28:26.299Z,99.99
2017-06-22T02:29:27.726Z,99.99
2017-06-22T02:30:29.153Z,99.99
2017-06-22T02:31:30.576Z,99.99
2017-06-22T02:32:32.003Z,99.99
2017-06-22T02:33:33.433Z,99.99
2017-06-22T02:34:34.858Z,99.99
2017-06-22T02:35:36.292Z,99.99
2017-06-22T02:36:37.722Z,99.99
2017-06-22T02:37:39.155Z,99.99
2017-06-22T02:38:40.574Z,99.63
2017-06-22T02:39:42.000Z,99.83
2017-06-22T02:40:43.426Z,99.99
2017-06-22T02:41:44.860Z,99.99
2017-06-22T02:42:46.285Z,99.99
2017-06-22T02:43:47.721Z,99.99
2017-06-22T02:44:49.147Z,99.99
2017-06-22T02:45:50.580Z,99.99
2017-06-22T02:46:52.006Z,99.99
2017-06-22T02:47:53.437Z,99.99
2017-06-22T02:48:54.863Z,99.99
2017-06-22T02:49:57.547Z,99.99
2017-06-22T02:50:58.976Z,99.99
2017-06-22T02:52:00.403Z,99.99
2017-06-22T02:53:01.830Z,99.99
2017-06-22T02:54:03.254Z,99.99
2017-06-22T02:55:04.682Z,99.99
2017-06-22T02:56:06.101Z,99.99
2017-06-22T02:57:07.539Z,99.99
2017-06-22T02:58:08.971Z,99.99
2017-06-22T02:59:10.407Z,99.99
2017-06-22T03:00:11.835Z,99.99
2017-06-22T03:01:13.264Z,99.99
2017-06-22T03:02:14.698Z,99.99
2017-06-22T03:03:16.133Z,99.99
2017-06-22T03:04:17.571Z,99.99
2017-06-22T03:05:18.992Z,99.99
2017-06-22T03:06:20.428Z,99.99
2017-06-22T03:07:21.861Z,99.99
2017-06-22T03:08:23.288Z,99.99
2017-06-22T03:09:24.723Z,99.99
2017-06-22T03:10:26.252Z,99.99
2017-06-22T03:11:27.683Z,99.99
2017-06-22T03:12:29.113Z,99.99
2017-06-22T03:13:30.543Z,99.99
2017-06-22T03:14:31.978Z,99.99
2017-06-22T03:15:33.406Z,99.99
2017-06-22T03:16:34.834Z,99.99
2017-06-22T03:17:36.264Z,99.99
2017-06-22T03:18:37.704Z,99.99
2017-06-22T03:19:39.128Z,99.99
2017-06-22T03:20:40.561Z,99.99
2017-06-22T03:21:41.988Z,99.99
2017-06-22T03:22:43.419Z,99.99
2017-06-22T03:23:44.847Z,99.99
2017-06-22T03:24:46.269Z,99.99
2017-06-22T03:25:47.695Z,99.99
2017-06-22T03:26:49.119Z,99.99
2017-06-22T03:27:50.549Z,99.99
2017-06-22T03:28:51.985Z,99.99
2017-06-22T03:29:53.418Z,99.99
2017-06-22T03:30:54.848Z,99.99
2017-06-22T03:31:56.271Z,99.99
2017-06-22T03:32:57.697Z,99.99
2017-06-22T03:33:59.127Z,99.99
2017-06-22T03:35:00.561Z,99.99
2017-06-22T03:36:01.987Z,99.99
2017-06-22T03:37:03.424Z,99.99
2017-06-22T03:38:04.855Z,99.99
2017-06-22T03:39:06.285Z,99.99
2017-06-22T03:40:07.716Z,99.99
2017-06-22T03:41:09.155Z,99.99
2017-06-22T03:42:10.575Z,99.99
2017-06-22T03:43:12.006Z,99.99
2017-06-22T03:44:13.443Z,99.99
2017-06-22T03:45:14.871Z,99.99
2017-06-22T03:46:16.299Z,99.99
2017-06-22T03:47:17.732Z,99.99
2017-06-22T03:48:19.163Z,99.99
2017-06-22T03:49:20.603Z,99.99
2017-06-22T03:50:22.030Z,99.99
2017-06-22T03:51:23.464Z,99.99
2017-06-22T03:52:24.888Z,99.99
2017-06-22T03:53:26.322Z,99.99
2017-06-22T03:54:27.752Z,99.99
2017-06-22T03:55:29.188Z,99.99
2017-06-22T03:56:30.613Z,99.99
2017-06-22T03:57:32.044Z,99.99
2017-06-22T03:58:33.476Z,99.99
2017-06-22T03:59:34.901Z,99.99
2017-06-22T04:00:36.333Z,99.99
2017-06-22T04:01:37.757Z,99.99
2017-06-22T04:02:39.201Z,99.99
2017-06-22T04:03:40.626Z,99.99
2017-06-22T04:04:42.063Z,99.99
2017-06-22T04:05:43.502Z,99.99
2017-06-22T04:06:44.927Z,99.99
2017-06-22T04:07:47.026Z,99.99
2017-06-22T04:08:48.451Z,99.99
2017-06-22T04:09:49.879Z,99.99
2017-06-22T04:10:51.311Z,99.99
2017-06-22T04:11:52.741Z,99.99
2017-06-22T04:12:54.169Z,99.99
2017-06-22T04:13:55.600Z,99.99
2017-06-22T04:14:57.040Z,99.99
2017-06-22T04:15:58.467Z,99.99
2017-06-22T04:16:59.892Z,99.99
2017-06-22T04:18:01.319Z,99.99
2017-06-22T04:19:02.755Z,99.99
2017-06-22T04:20:04.188Z,99.99
2017-06-22T04:21:05.625Z,99.99
2017-06-22T04:22:07.059Z,99.99
2017-06-22T04:23:08.493Z,99.99
2017-06-22T04:24:09.925Z,99.99
2017-06-22T04:25:11.355Z,99.99
2017-06-22T04:26:12.785Z,99.99
2017-06-22T04:27:14.218Z,99.99
2017-06-22T04:28:15.652Z,99.99
2017-06-22T04:29:17.088Z,99.99
2017-06-22T04:30:18.516Z,99.99
2017-06-22T04:31:19.960Z,99.99
2017-06-22T04:32:21.383Z,99.99
2017-06-22T04:33:22.820Z,99.99
2017-06-22T04:34:24.251Z,99.99
2017-06-22T04:35:25.680Z,99.99
2017-06-22T04:36:27.113Z,99.99
2017-06-22T04:37:28.545Z,99.99
2017-06-22T04:38:29.977Z,99.99
2017-06-22T04:39:31.410Z,99.99
2017-06-22T04:40:32.840Z,99.99
2017-06-22T04:41:34.286Z,99.99
2017-06-22T04:42:35.698Z,99.99
2017-06-22T04:43:37.138Z,99.99
2017-06-22T04:44:38.568Z,99.99
2017-06-22T04:45:40.002Z,99.99
2017-06-22T04:46:41.429Z,99.99
2017-06-22T04:47:42.859Z,99.99
2017-06-22T04:48:44.288Z,99.99
2017-06-22T04:49:45.714Z,99.99
2017-06-22T04:50:47.155Z,99.99
2017-06-22T04:51:48.577Z,99.99
2017-06-22T04:52:50.015Z,99.99
2017-06-22T04:53:51.444Z,99.99
2017-06-22T04:54:52.877Z,99.99
2017-06-22T04:55:54.307Z,99.99
2017-06-22T04:56:55.741Z,99.99
2017-06-22T04:57:57.170Z,99.99
2017-06-22T04:58:58.604Z,99.99
2017-06-22T05:00:00.035Z,99.99
2017-06-22T05:01:01.470Z,99.99
2017-06-22T05:02:02.900Z,99.99
2017-06-22T05:03:04.329Z,99.99
2017-06-22T05:04:05.760Z,99.99
2017-06-22T05:05:07.186Z,99.99
2017-06-22T05:06:08.622Z,99.99
2017-06-22T05:07:10.051Z,99.99
2017-06-22T05:08:11.493Z,99.99
2017-06-22T05:09:12.921Z,99.99
2017-06-22T05:10:14.348Z,99.99
2017-06-22T05:11:15.783Z,99.99
2017-06-22T05:12:17.215Z,99.99
2017-06-22T05:13:18.645Z,99.99
2017-06-22T05:14:20.084Z,99.99
2017-06-22T05:15:21.519Z,99.99
2017-06-22T05:16:22.943Z,99.99
2017-06-22T05:17:24.373Z,99.99
2017-06-22T05:18:25.812Z,99.93
2017-06-22T05:19:27.254Z,99.35
2017-06-22T05:20:28.675Z,99.99
2017-06-22T05:21:30.155Z,99.16
2017-06-22T05:22:31.586Z,99.99
2017-06-22T05:23:33.015Z,99.98
2017-06-22T05:24:34.526Z,99.79
2017-06-22T05:25:35.958Z,99.88
2017-06-22T05:26:37.392Z,99.99
2017-06-22T05:27:38.826Z,99.99
2017-06-22T05:28:40.268Z,99.99
2017-06-22T05:29:41.696Z,99.99
2017-06-22T05:30:43.124Z,99.99
2017-06-22T05:31:44.573Z,99.30
2017-06-22T05:32:46.014Z,98.10
2017-06-22T05:33:48.196Z,97.14
2017-06-22T05:34:49.642Z,98.10
2017-06-22T05:35:51.083Z,98.49
2017-06-22T05:36:52.520Z,99.35
2017-06-22T05:37:53.949Z,99.74
2017-06-22T05:38:55.378Z,99.64
2017-06-22T05:39:56.808Z,99.35
2017-06-22T05:40:58.241Z,98.77
2017-06-22T05:41:59.672Z,99.99
2017-06-22T05:43:01.120Z,99.55
2017-06-22T05:44:02.544Z,99.07
2017-06-22T05:45:03.978Z,99.99
2017-06-22T05:46:05.417Z,99.99
2017-06-22T05:47:06.844Z,99.99
2017-06-22T05:48:08.279Z,99.99
2017-06-22T05:49:09.714Z,99.99
2017-06-22T05:51:34.205Z,99.11
2017-06-22T05:52:35.637Z,99.26
2017-06-22T05:53:37.069Z,97.14
2017-06-22T05:54:38.499Z,97.04
2017-06-22T05:55:39.929Z,95.64
2017-06-22T05:56:41.365Z,95.35
2017-06-22T05:57:42.800Z,95.83
2017-06-22T05:58:44.234Z,94.29
2017-06-22T05:59:45.690Z,93.13
2017-06-22T06:00:47.105Z,92.89
2017-06-22T06:01:48.539Z,92.60
2017-06-22T06:02:49.966Z,93.56
2017-06-22T06:03:51.405Z,92.98
2017-06-22T06:04:52.839Z,92.89
2017-06-22T06:05:54.277Z,91.73
2017-06-22T06:06:55.708Z,91.97
2017-06-22T06:07:57.143Z,91.49
2017-06-22T06:08:58.578Z,90.52
2017-06-22T06:10:00.008Z,90.61
2017-06-22T06:11:01.449Z,89.75
2017-06-22T06:12:02.892Z,89.84
2017-06-22T06:13:04.330Z,89.69
2017-06-22T06:14:05.762Z,90.56
2017-06-22T06:15:07.211Z,89.98
2017-06-22T06:16:08.646Z,89.59
2017-06-22T06:17:10.077Z,88.53
2017-06-22T06:18:11.521Z,88.92
2017-06-22T06:19:12.957Z,88.48
2017-06-22T06:20:14.389Z,88.67
2017-06-22T06:21:15.818Z,87.23
2017-06-22T06:22:17.253Z,87.71
2017-06-22T06:23:18.688Z,86.83
2017-06-22T06:24:20.121Z,86.40
2017-06-22T06:25:21.551Z,86.01
2017-06-22T06:26:22.987Z,86.01
2017-06-22T06:27:24.418Z,86.01
2017-06-22T06:28:25.852Z,85.82
2017-06-22T06:29:27.312Z,84.75
2017-06-22T06:30:28.739Z,84.75
2017-06-22T06:31:30.176Z,83.49
2017-06-22T06:32:31.617Z,84.60
2017-06-22T06:33:33.050Z,84.27
2017-06-22T06:34:34.489Z,85.47
2017-06-22T06:35:35.920Z,84.79
2017-06-22T06:36:37.356Z,85.08
2017-06-22T06:37:38.784Z,84.31
2017-06-22T06:38:40.221Z,84.69
2017-06-22T06:39:41.652Z,84.50
2017-06-22T06:40:43.083Z,84.35
2017-06-22T06:41:44.521Z,84.55
2017-06-22T06:42:45.959Z,83.67
2017-06-22T06:43:47.402Z,83.96
2017-06-22T06:44:48.833Z,82.32
2017-06-22T06:45:50.266Z,80.90
2017-06-22T06:46:51.698Z,81.77
2017-06-22T06:47:53.140Z,80.03
2017-06-22T06:48:54.582Z,80.22
2017-06-22T06:49:56.016Z,79.93
2017-06-22T06:50:57.453Z,79.45
2017-06-22T06:51:58.892Z,79.00
2017-06-22T06:53:00.327Z,78.23
2017-06-22T06:54:01.760Z,78.61
2017-06-22T06:55:03.195Z,77.65
2017-06-22T06:56:04.631Z,76.97
2017-06-22T06:57:06.067Z,78.03
2017-06-22T06:58:07.497Z,77.84
2017-06-22T06:59:08.938Z,78.23
2017-06-22T07:00:10.379Z,78.33
2017-06-22T07:01:11.819Z,78.81
2017-06-22T07:02:13.249Z,79.53
2017-06-22T07:03:14.676Z,78.27
2017-06-22T07:04:16.118Z,77.01
2017-06-22T07:05:17.552Z,78.27
2017-06-22T07:06:18.983Z,78.17
2017-06-22T07:07:20.421Z,78.56
2017-06-22T07:08:21.858Z,76.75
2017-06-22T07:09:23.292Z,77.14
2017-06-22T07:10:24.730Z,76.65
2017-06-22T07:11:26.166Z,76.75
2017-06-22T07:12:27.604Z,76.56
2017-06-22T07:13:29.041Z,77.14
2017-06-22T07:14:30.546Z,76.65
2017-06-22T07:15:31.991Z,76.98
2017-06-22T07:16:33.423Z,76.98
2017-06-22T07:17:34.852Z,76.11
2017-06-22T07:18:36.288Z,73.97
2017-06-22T07:19:37.731Z,75.34
2017-06-22T07:20:39.168Z,73.49
2017-06-22T07:21:40.611Z,73.58
2017-06-22T07:22:42.049Z,74.17
2017-06-22T07:23:43.478Z,73.78
2017-06-22T07:24:44.914Z,73.58
2017-06-22T07:25:46.370Z,75.34
2017-06-22T07:26:47.805Z,73.78
2017-06-22T07:27:49.242Z,73.68
2017-06-22T07:28:50.683Z,72.13
2017-06-22T07:29:52.116Z,71.55
2017-06-22T07:30:53.560Z,71.97
2017-06-22T07:31:55.008Z,72.45
2017-06-22T07:32:56.449Z,72.65
2017-06-22T07:33:57.890Z,72.65
2017-06-22T07:34:59.330Z,73.24
2017-06-22T07:36:00.766Z,72.75
2017-06-22T07:37:02.207Z,73.33
2017-06-22T07:38:03.635Z,71.23
2017-06-22T07:39:05.065Z,71.62
2017-06-22T07:40:06.513Z,71.23
2017-06-22T07:41:07.948Z,73.18
2017-06-22T07:42:09.384Z,73.46
2017-06-22T07:43:10.822Z,72.59
2017-06-22T07:44:12.259Z,70.65
2017-06-22T07:45:13.707Z,71.42
2017-06-22T07:46:15.144Z,71.72
2017-06-22T07:47:16.581Z,72.30
2017-06-22T07:48:18.126Z,70.97
2017-06-22T07:49:19.565Z,72.88
2017-06-22T07:50:21.015Z,70.16
2017-06-22T07:51:22.508Z,71.03
2017-06-22T07:52:23.955Z,69.71
2017-06-22T07:53:25.385Z,70.58
2017-06-22T07:54:26.820Z,69.71
2017-06-22T07:55:28.264Z,71.26
2017-06-22T07:56:29.711Z,70.10
2017-06-22T07:57:31.134Z,69.71
2017-06-22T07:58:32.584Z,69.13
2017-06-22T07:59:34.016Z,70.58
2017-06-22T08:00:35.457Z,70.49
2017-06-22T08:01:36.894Z,71.23
2017-06-22T08:02:38.363Z,69.61
2017-06-22T08:03:39.820Z,68.96
2017-06-22T08:04:41.261Z,69.55
2017-06-22T08:05:42.699Z,69.94
2017-06-22T08:06:44.134Z,69.74
2017-06-22T08:07:45.573Z,70.04
2017-06-22T08:08:47.018Z,69.35
2017-06-22T08:09:48.471Z,68.22
2017-06-22T08:10:49.910Z,68.12
2017-06-22T08:11:51.351Z,67.05
2017-06-22T08:12:52.786Z,66.86
2017-06-22T08:13:54.223Z,68.80
2017-06-22T08:14:55.663Z,66.79
2017-06-22T08:15:57.099Z,67.08
2017-06-22T08:16:58.536Z,66.79
2017-06-22T08:17:59.978Z,66.73
2017-06-22T08:19:01.424Z,66.50
2017-06-22T08:20:02.873Z,66.63
2017-06-22T08:21:04.311Z,65.17
2017-06-22T08:22:05.791Z,64.81
2017-06-22T08:23:07.228Z,65.40
2017-06-22T08:24:08.666Z,66.37
2017-06-22T08:25:10.114Z,66.96
2017-06-22T08:26:11.553Z,67.25
2017-06-22T08:27:12.996Z,65.78
2017-06-22T08:28:14.471Z,63.54
2017-06-22T08:29:15.958Z,64.13
2017-06-22T08:30:17.399Z,64.91
2017-06-22T08:31:18.843Z,66.27
2017-06-22T08:32:20.327Z,65.50
2017-06-22T08:33:21.759Z,66.76
2017-06-22T08:34:23.202Z,64.52
2017-06-22T08:35:24.640Z,67.12
2017-06-22T08:36:26.066Z,67.25
2017-06-22T08:37:27.514Z,65.14
2017-06-22T08:38:28.947Z,66.76
2017-06-22T08:39:30.387Z,63.18
2017-06-22T08:40:31.823Z,64.65
2017-06-22T08:41:33.261Z,66.53
2017-06-22T08:42:34.724Z,66.50
2017-06-22T08:43:36.162Z,64.68
2017-06-22T08:44:37.599Z,65.56
2017-06-22T08:45:39.070Z,62.37
2017-06-22T08:46:40.486Z,61.69
2017-06-22T08:47:41.937Z,62.47
2017-06-22T08:48:43.375Z,64.61
2017-06-22T08:49:44.810Z,64.32
2017-06-22T08:50:46.258Z,63.09
2017-06-22T08:51:47.695Z,61.88
2017-06-22T08:52:49.150Z,63.64
2017-06-22T08:53:50.589Z,64.75
2017-06-22T08:54:52.033Z,63.67
2017-06-22T08:55:53.462Z,62.11
2017-06-22T08:56:54.903Z,63.28
2017-06-22T08:57:56.340Z,62.79
2017-06-22T08:58:57.780Z,61.45
2017-06-22T08:59:59.224Z,61.84
2017-06-22T09:01:00.668Z,63.51
2017-06-22T09:02:02.113Z,62.85
2017-06-22T09:03:03.559Z,61.94
2017-06-22T09:04:04.997Z,60.96
2017-06-22T09:05:06.437Z,61.55
2017-06-22T09:06:07.877Z,60.74
2017-06-22T09:07:09.310Z,61.55
2017-06-22T09:08:10.746Z,60.47
2017-06-22T09:09:12.188Z,60.47
2017-06-22T09:10:13.637Z,60.86
2017-06-22T09:11:15.076Z,61.06
2017-06-22T09:12:16.519Z,60.28
2017-06-22T09:13:17.997Z,60.18
2017-06-22T09:14:19.443Z,62.07
2017-06-22T09:15:20.888Z,61.87
2017-06-22T09:16:22.332Z,58.84
2017-06-22T09:17:23.896Z,58.33
2017-06-22T09:18:25.496Z,59.79
2017-06-22T09:19:27.558Z,57.57
2017-06-22T09:20:29.243Z,60.28
2017-06-22T09:21:31.112Z,60.70
2017-06-22T09:22:32.569Z,59.14
2017-06-22T09:23:34.166Z,57.77
2017-06-22T09:24:35.894Z,59.17
2017-06-22T09:25:37.331Z,58.18
2017-06-22T09:26:39.199Z,59.33
2017-06-22T09:27:40.754Z,59.95
2017-06-22T09:28:42.202Z,60.47
2017-06-22T09:29:43.700Z,59.56
2017-06-22T09:30:45.170Z,60.05
2017-06-22T09:31:46.613Z,60.05
2017-06-22T09:32:48.051Z,56.95
2017-06-22T09:33:49.504Z,57.60
2017-06-22T09:34:50.960Z,56.13
2017-06-22T09:35:52.418Z,57.79
2017-06-22T09:36:53.865Z,56.95
2017-06-22T09:37:55.303Z,57.34
2017-06-22T09:38:56.755Z,57.53
2017-06-22T09:39:58.188Z,53.81
2017-06-22T09:40:59.640Z,55.11
2017-06-22T09:42:01.083Z,54.82
2017-06-22T09:43:02.533Z,56.38
2017-06-22T09:44:03.974Z,53.74
2017-06-22T09:45:05.427Z,53.84
2017-06-22T09:46:06.867Z,54.62
2017-06-22T09:47:08.308Z,54.21
2017-06-22T09:48:09.753Z,55.57
2017-06-22T09:49:11.217Z,56.36
2017-06-22T09:50:12.660Z,54.99
2017-06-22T09:51:14.108Z,56.65
2017-06-22T09:52:15.555Z,56.65
2017-06-22T09:53:16.989Z,56.46
2017-06-22T09:54:18.441Z,54.89
2017-06-22T09:55:19.878Z,54.03
2017-06-22T09:56:21.325Z,54.43
2017-06-22T09:57:22.765Z,54.23
2017-06-22T09:58:24.214Z,55.11
2017-06-22T09:59:26.512Z,55.21
2017-06-22T10:00:27.890Z,55.14
2017-06-22T10:01:29.332Z,52.50
2017-06-22T10:02:30.770Z,53.30
2017-06-22T10:03:32.220Z,53.20
2017-06-22T10:04:33.656Z,54.58
2017-06-22T10:05:35.103Z,53.63
2017-06-22T10:06:36.534Z,51.73
2017-06-22T10:07:37.981Z,52.33
2017-06-22T10:08:39.422Z,53.57
2017-06-22T10:09:40.864Z,53.67
2017-06-22T10:10:42.452Z,53.08
2017-06-22T10:11:44.004Z,53.96
2017-06-22T10:12:45.546Z,54.46
2017-06-22T10:13:47.169Z,54.48
2017-06-22T10:14:48.616Z,54.31
2017-06-22T10:15:50.071Z,54.80
2017-06-22T10:16:52.000Z,53.50
2017-06-22T10:17:53.751Z,52.33
2017-06-22T10:18:55.370Z,54.19
2017-06-22T10:19:56.808Z,56.34
2017-06-22T10:20:58.270Z,56.31
2017-06-22T10:21:59.719Z,55.66
2017-06-22T10:23:01.177Z,53.08
2017-06-22T10:24:02.681Z,53.20
2017-06-22T10:25:04.122Z,53.69
2017-06-22T10:26:05.562Z,55.07
2017-06-22T10:27:07.001Z,55.26
2017-06-22T10:28:08.445Z,55.16
2017-06-22T10:29:09.889Z,56.15
2017-06-22T10:30:11.334Z,52.15
2017-06-22T10:31:12.777Z,54.31
2017-06-22T10:32:14.225Z,52.55
2017-06-22T10:33:15.667Z,51.93
2017-06-22T10:34:17.112Z,52.45
2017-06-22T10:35:18.563Z,52.42
2017-06-22T10:36:19.998Z,53.47
2017-06-22T10:37:21.440Z,55.18
2017-06-22T10:38:22.883Z,56.38
2017-06-22T10:39:24.330Z,57.14
2017-06-22T10:40:25.783Z,56.26
2017-06-22T10:41:27.220Z,54.50
2017-06-22T10:42:28.662Z,56.09
2017-06-22T10:43:30.107Z,54.94
2017-06-22T10:44:31.546Z,55.26
2017-06-22T10:45:32.988Z,53.69
2017-06-22T10:46:34.430Z,52.45
2017-06-22T10:47:35.871Z,53.03
2017-06-22T10:48:37.313Z,52.18
2017-06-22T10:49:38.756Z,52.11
2017-06-22T10:50:40.198Z,52.08
2017-06-22T10:51:41.640Z,52.18
2017-06-22T10:52:43.079Z,54.31
2017-06-22T10:53:44.525Z,55.02
2017-06-22T10:54:45.967Z,52.50
2017-06-22T10:55:47.406Z,53.28
2017-06-22T10:56:48.856Z,52.59
2017-06-22T10:57:50.293Z,53.06
2017-06-22T10:58:51.751Z,53.85
2017-06-22T10:59:53.189Z,52.08
2017-06-22T11:00:54.632Z,52.84
2017-06-22T11:01:56.076Z,52.94
2017-06-22T11:02:57.520Z,53.55
2017-06-22T11:03:58.963Z,55.02
2017-06-22T11:05:00.409Z,52.20
2017-06-22T11:06:01.853Z,55.35
2017-06-22T11:07:03.314Z,52.57
2017-06-22T11:08:04.748Z,52.13
2017-06-22T11:09:06.193Z,53.97
2017-06-22T11:10:07.637Z,53.53
2017-06-22T11:11:09.080Z,53.63
2017-06-22T11:12:10.530Z,53.16
2017-06-22T11:13:11.976Z,52.59
2017-06-22T11:14:13.420Z,53.48
2017-06-22T11:15:14.866Z,52.33
2017-06-22T11:16:16.304Z,54.19
2017-06-22T11:17:17.742Z,55.08
2017-06-22T11:18:19.180Z,54.75
2017-06-22T11:19:20.622Z,54.49
2017-06-22T11:20:22.070Z,54.98
2017-06-22T11:21:23.508Z,53.41
2017-06-22T11:22:24.959Z,54.58
2017-06-22T11:23:26.402Z,52.89
2017-06-22T11:24:27.851Z,54.27
2017-06-22T11:25:29.291Z,53.97
2017-06-22T11:26:30.742Z,53.77
2017-06-22T11:27:32.182Z,55.35
2017-06-22T11:28:33.630Z,54.27
2017-06-22T11:29:35.074Z,54.63
2017-06-22T11:30:36.525Z,54.07
2017-06-22T11:31:37.963Z,56.52
2017-06-22T11:32:39.397Z,52.92
2017-06-22T11:33:40.842Z,53.41
2017-06-22T11:34:42.302Z,53.63
2017-06-22T11:35:43.741Z,52.65
2017-06-22T11:36:45.178Z,54.49
2017-06-22T11:37:46.625Z,54.52
2017-06-22T11:38:48.056Z,54.74
2017-06-22T11:39:49.501Z,51.47
2017-06-22T11:40:50.942Z,50.49
2017-06-22T11:41:52.395Z,51.89
2017-06-22T11:42:53.844Z,51.37
2017-06-22T11:43:55.282Z,50.90
2017-06-22T11:44:56.719Z,50.51
2017-06-22T11:45:58.164Z,51.00
2017-06-22T11:46:59.601Z,51.89
2017-06-22T11:48:01.055Z,51.27
2017-06-22T11:49:02.492Z,52.45
2017-06-22T11:50:03.948Z,51.86
2017-06-22T11:51:05.387Z,51.40
2017-06-22T11:52:06.834Z,50.81
2017-06-22T11:53:08.278Z,51.79
2017-06-22T11:54:09.723Z,51.52
2017-06-22T11:55:11.167Z,51.50
2017-06-22T11:56:12.609Z,50.68
2017-06-22T11:57:14.048Z,50.61
2017-06-22T11:58:15.492Z,52.97
2017-06-22T11:59:16.935Z,51.47
2017-06-22T12:00:18.376Z,49.33
2017-06-22T12:01:19.829Z,50.71
2017-06-22T12:02:21.272Z,51.10
2017-06-22T12:03:22.719Z,48.45
2017-06-22T12:04:24.174Z,50.51
2017-06-22T12:05:25.632Z,50.02
2017-06-22T12:06:27.077Z,50.81
2017-06-22T12:07:28.518Z,52.28
2017-06-22T12:08:29.958Z,51.10
2017-06-22T12:09:31.402Z,49.55
2017-06-22T12:10:32.847Z,48.86
2017-06-22T12:11:34.293Z,49.95
2017-06-22T12:12:35.736Z,48.67
2017-06-22T12:13:37.188Z,50.12
2017-06-22T12:14:38.632Z,49.92
2017-06-22T12:15:40.082Z,48.84
2017-06-22T12:16:41.519Z,48.55
2017-06-22T12:17:42.961Z,48.94
2017-06-22T12:18:44.404Z,50.61
2017-06-22T12:19:45.845Z,50.32
2017-06-22T12:20:47.294Z,50.81
2017-06-22T12:21:48.738Z,50.32
2017-06-22T12:22:50.180Z,49.53
2017-06-22T12:23:51.624Z,50.12
2017-06-22T12:24:53.064Z,50.83
2017-06-22T12:25:54.502Z,51.35
2017-06-22T12:26:56.464Z,48.59
2017-06-22T12:27:57.907Z,49.87
2017-06-22T12:28:59.363Z,51.25
2017-06-22T12:30:00.802Z,51.05
2017-06-22T12:31:02.254Z,53.74
2017-06-22T12:32:03.697Z,52.33
2017-06-22T12:33:05.154Z,48.94
2017-06-22T12:34:06.603Z,48.77
2017-06-22T12:35:08.063Z,49.82
2017-06-22T12:36:09.512Z,47.56
2017-06-22T12:37:10.950Z,47.56
2017-06-22T12:38:13.542Z,47.44
2017-06-22T12:39:14.987Z,48.55
2017-06-22T12:40:16.504Z,49.43
2017-06-22T12:41:17.959Z,48.65
2017-06-22T12:42:19.410Z,49.33
2017-06-22T12:43:20.850Z,48.94
2017-06-22T12:44:22.330Z,48.45
2017-06-22T12:45:23.784Z,49.65
2017-06-22T12:46:25.221Z,48.89
2017-06-22T12:47:26.670Z,48.86
2017-06-22T12:48:28.113Z,48.99
2017-06-22T12:49:29.567Z,49.16
2017-06-22T12:50:31.006Z,49.65
2017-06-22T12:51:32.450Z,49.48
2017-06-22T12:52:33.890Z,51.12
2017-06-22T12:53:35.330Z,49.35
2017-06-22T12:54:36.770Z,49.08
2017-06-22T12:55:38.218Z,46.62
2017-06-22T12:56:39.663Z,47.04
2017-06-22T12:57:41.102Z,48.47
2017-06-22T12:58:42.603Z,48.47
2017-06-22T12:59:44.045Z,48.89
2017-06-22T13:00:45.492Z,47.51
2017-06-22T13:01:46.932Z,45.45
2017-06-22T13:02:48.373Z,44.46
2017-06-22T13:03:49.816Z,45.45
2017-06-22T13:04:51.275Z,45.94
2017-06-22T13:05:52.729Z,46.82
2017-06-22T13:06:54.197Z,44.95
2017-06-22T13:07:55.621Z,44.07
2017-06-22T13:08:57.058Z,46.13
2017-06-22T13:09:58.508Z,46.01
2017-06-22T13:10:59.948Z,46.31
2017-06-22T13:12:01.399Z,47.49
2017-06-22T13:13:02.841Z,47.29